sensor_id;sensor_type;location;lat;lon;timestamp;P1;durP1;ratioP1;P2;durP2;ratioP2
71856;SDS011;63344;46.980;28.882;2023-03-05T00:01:26;29.02;;;11.45;;
71856;SDS011;63344;46.980;28.882;2023-03-05T00:03:55;48.10;;;16.48;;
71856;SDS011;63344;46.980;28.882;2023-03-05T00:06:24;46.58;;;16.60;;
71856;SDS011;63344;46.980;28.882;2023-03-05T00:08:54;39.92;;;15.50;;
71856;SDS011;63344;46.980;28.882;2023-03-05T00:11:25;38.35;;;15.05;;
71856;SDS011;63344;46.980;28.882;2023-03-05T00:13:56;40.15;;;14.40;;
71856;SDS011;63344;46.980;28.882;2023-03-05T00:16:24;40.00;;;14.27;;
71856;SDS011;63344;46.980;28.882;2023-03-05T00:18:53;46.65;;;17.20;;
71856;SDS011;63344;46.980;28.882;2023-03-05T00:23:51;43.95;;;15.23;;
71856;SDS011;63344;46.980;28.882;2023-03-05T00:26:19;35.22;;;14.68;;
71856;SDS011;63344;46.980;28.882;2023-03-05T00:31:18;31.10;;;11.65;;
71856;SDS011;63344;46.980;28.882;2023-03-05T00:33:55;39.10;;;15.35;;
71856;SDS011;63344;46.980;28.882;2023-03-05T00:36:23;40.70;;;14.68;;
71856;SDS011;63344;46.980;28.882;2023-03-05T00:38:51;41.03;;;14.40;;
71856;SDS011;63344;46.980;28.882;2023-03-05T00:41:19;35.88;;;14.30;;
71856;SDS011;63344;46.980;28.882;2023-03-05T00:43:47;41.58;;;14.77;;
71856;SDS011;63344;46.980;28.882;2023-03-05T00:46:15;41.10;;;14.45;;
71856;SDS011;63344;46.980;28.882;2023-03-05T00:48:42;34.60;;;12.57;;
71856;SDS011;63344;46.980;28.882;2023-03-05T00:51:10;40.30;;;15.65;;
71856;SDS011;63344;46.980;28.882;2023-03-05T00:53:38;37.47;;;13.45;;
71856;SDS011;63344;46.980;28.882;2023-03-05T00:56:05;44.47;;;13.88;;
71856;SDS011;63344;46.980;28.882;2023-03-05T00:58:33;37.95;;;13.43;;
71856;SDS011;63344;46.980;28.882;2023-03-05T01:01:00;33.88;;;13.27;;
71856;SDS011;63344;46.980;28.882;2023-03-05T01:03:29;34.45;;;12.95;;
71856;SDS011;63344;46.980;28.882;2023-03-05T01:05:59;42.95;;;13.98;;
71856;SDS011;63344;46.980;28.882;2023-03-05T01:08:27;37.17;;;13.35;;
71856;SDS011;63344;46.980;28.882;2023-03-05T01:10:54;39.25;;;13.35;;
71856;SDS011;63344;46.980;28.882;2023-03-05T01:13:22;35.22;;;12.57;;
71856;SDS011;63344;46.980;28.882;2023-03-05T01:15:50;24.92;;;9.10;;
71856;SDS011;63344;46.980;28.882;2023-03-05T01:18:18;33.05;;;11.90;;
71856;SDS011;63344;46.980;28.882;2023-03-05T01:20:47;36.33;;;14.00;;
71856;SDS011;63344;46.980;28.882;2023-03-05T01:23:14;38.65;;;13.45;;
71856;SDS011;63344;46.980;28.882;2023-03-05T01:25:42;34.85;;;12.77;;
71856;SDS011;63344;46.980;28.882;2023-03-05T01:28:09;29.90;;;11.15;;
71856;SDS011;63344;46.980;28.882;2023-03-05T01:30:38;28.02;;;11.63;;
71856;SDS011;63344;46.980;28.882;2023-03-05T01:33:05;32.83;;;11.65;;
71856;SDS011;63344;46.980;28.882;2023-03-05T01:35:33;34.55;;;12.80;;
71856;SDS011;63344;46.980;28.882;2023-03-05T01:38:00;23.50;;;8.45;;
71856;SDS011;63344;46.980;28.882;2023-03-05T01:40:28;35.60;;;11.80;;
71856;SDS011;63344;46.980;28.882;2023-03-05T01:43:07;63.85;;;20.38;;
71856;SDS011;63344;46.980;28.882;2023-03-05T01:48:46;23.00;;;10.55;;
71856;SDS011;63344;46.980;28.882;2023-03-05T01:51:17;20.00;;;7.05;;
71856;SDS011;63344;46.980;28.882;2023-03-05T01:53:48;19.73;;;9.15;;
71856;SDS011;63344;46.980;28.882;2023-03-05T01:56:15;28.00;;;11.90;;
71856;SDS011;63344;46.980;28.882;2023-03-05T01:58:43;20.85;;;8.63;;
71856;SDS011;63344;46.980;28.882;2023-03-05T02:01:11;26.70;;;9.88;;
71856;SDS011;63344;46.980;28.882;2023-03-05T02:03:39;25.23;;;9.65;;
71856;SDS011;63344;46.980;28.882;2023-03-05T02:06:07;22.50;;;9.05;;
71856;SDS011;63344;46.980;28.882;2023-03-05T02:08:35;23.42;;;9.25;;
71856;SDS011;63344;46.980;28.882;2023-03-05T02:11:02;22.63;;;9.43;;
71856;SDS011;63344;46.980;28.882;2023-03-05T02:13:31;22.92;;;9.85;;
71856;SDS011;63344;46.980;28.882;2023-03-05T02:16:01;23.67;;;7.88;;
71856;SDS011;63344;46.980;28.882;2023-03-05T02:18:29;17.80;;;6.90;;
71856;SDS011;63344;46.980;28.882;2023-03-05T02:23:29;20.92;;;7.95;;
71856;SDS011;63344;46.980;28.882;2023-03-05T02:25:59;19.45;;;7.57;;
71856;SDS011;63344;46.980;28.882;2023-03-05T02:31:13;19.30;;;7.75;;
71856;SDS011;63344;46.980;28.882;2023-03-05T02:33:41;19.73;;;7.43;;
71856;SDS011;63344;46.980;28.882;2023-03-05T02:36:09;19.60;;;8.50;;
71856;SDS011;63344;46.980;28.882;2023-03-05T02:38:40;19.77;;;7.25;;
71856;SDS011;63344;46.980;28.882;2023-03-05T02:41:09;12.02;;;4.85;;
71856;SDS011;63344;46.980;28.882;2023-03-05T02:43:37;20.33;;;8.50;;
71856;SDS011;63344;46.980;28.882;2023-03-05T02:46:04;17.40;;;6.13;;
71856;SDS011;63344;46.980;28.882;2023-03-05T02:48:32;17.38;;;7.00;;
71856;SDS011;63344;46.980;28.882;2023-03-05T02:51:01;15.43;;;5.63;;
71856;SDS011;63344;46.980;28.882;2023-03-05T02:53:30;19.20;;;7.50;;
71856;SDS011;63344;46.980;28.882;2023-03-05T02:55:58;17.20;;;6.55;;
71856;SDS011;63344;46.980;28.882;2023-03-05T02:58:26;20.42;;;7.60;;
71856;SDS011;63344;46.980;28.882;2023-03-05T03:00:53;18.05;;;7.75;;
71856;SDS011;63344;46.980;28.882;2023-03-05T03:03:21;20.02;;;8.23;;
71856;SDS011;63344;46.980;28.882;2023-03-05T03:05:48;23.88;;;8.70;;
71856;SDS011;63344;46.980;28.882;2023-03-05T03:08:15;20.50;;;7.70;;
71856;SDS011;63344;46.980;28.882;2023-03-05T03:10:43;22.02;;;8.50;;
71856;SDS011;63344;46.980;28.882;2023-03-05T03:13:10;22.92;;;9.00;;
71856;SDS011;63344;46.980;28.882;2023-03-05T03:15:37;22.13;;;7.43;;
71856;SDS011;63344;46.980;28.882;2023-03-05T03:18:06;18.00;;;7.80;;
71856;SDS011;63344;46.980;28.882;2023-03-05T03:20:33;14.60;;;5.93;;
71856;SDS011;63344;46.980;28.882;2023-03-05T03:23:04;19.05;;;7.55;;
71856;SDS011;63344;46.980;28.882;2023-03-05T03:25:33;19.40;;;8.40;;
71856;SDS011;63344;46.980;28.882;2023-03-05T03:28:00;20.23;;;8.23;;
71856;SDS011;63344;46.980;28.882;2023-03-05T03:30:28;20.67;;;7.88;;
71856;SDS011;63344;46.980;28.882;2023-03-05T03:32:55;17.15;;;7.25;;
71856;SDS011;63344;46.980;28.882;2023-03-05T03:35:24;20.20;;;8.60;;
71856;SDS011;63344;46.980;28.882;2023-03-05T03:37:52;18.58;;;7.63;;
71856;SDS011;63344;46.980;28.882;2023-03-05T03:40:19;21.05;;;8.38;;
71856;SDS011;63344;46.980;28.882;2023-03-05T03:42:47;23.85;;;8.20;;
71856;SDS011;63344;46.980;28.882;2023-03-05T03:45:14;15.18;;;6.55;;
71856;SDS011;63344;46.980;28.882;2023-03-05T03:47:41;20.05;;;8.82;;
71856;SDS011;63344;46.980;28.882;2023-03-05T03:50:09;19.42;;;7.90;;
71856;SDS011;63344;46.980;28.882;2023-03-05T03:52:37;14.82;;;6.82;;
71856;SDS011;63344;46.980;28.882;2023-03-05T03:55:05;18.52;;;7.80;;
71856;SDS011;63344;46.980;28.882;2023-03-05T03:57:32;19.45;;;8.57;;
71856;SDS011;63344;46.980;28.882;2023-03-05T04:00:00;17.52;;;7.70;;
71856;SDS011;63344;46.980;28.882;2023-03-05T04:02:31;22.52;;;8.15;;
71856;SDS011;63344;46.980;28.882;2023-03-05T04:04:59;21.55;;;8.75;;
71856;SDS011;63344;46.980;28.882;2023-03-05T04:07:27;18.73;;;7.72;;
71856;SDS011;63344;46.980;28.882;2023-03-05T04:09:54;16.27;;;6.88;;
71856;SDS011;63344;46.980;28.882;2023-03-05T04:12:21;22.25;;;9.10;;
71856;SDS011;63344;46.980;28.882;2023-03-05T04:14:49;21.40;;;7.30;;
71856;SDS011;63344;46.980;28.882;2023-03-05T04:17:16;22.17;;;8.50;;
71856;SDS011;63344;46.980;28.882;2023-03-05T04:19:45;21.42;;;8.30;;
71856;SDS011;63344;46.980;28.882;2023-03-05T04:22:12;23.85;;;8.60;;
71856;SDS011;63344;46.980;28.882;2023-03-05T04:24:41;23.50;;;9.40;;
71856;SDS011;63344;46.980;28.882;2023-03-05T04:27:08;19.38;;;8.05;;
71856;SDS011;63344;46.980;28.882;2023-03-05T04:29:36;21.63;;;8.57;;
71856;SDS011;63344;46.980;28.882;2023-03-05T04:32:03;20.35;;;9.13;;
71856;SDS011;63344;46.980;28.882;2023-03-05T04:34:31;19.33;;;8.13;;
71856;SDS011;63344;46.980;28.882;2023-03-05T04:36:58;18.13;;;7.20;;
71856;SDS011;63344;46.980;28.882;2023-03-05T04:39:26;17.30;;;6.32;;
71856;SDS011;63344;46.980;28.882;2023-03-05T04:41:53;22.42;;;8.80;;
71856;SDS011;63344;46.980;28.882;2023-03-05T04:44:20;18.92;;;8.07;;
71856;SDS011;63344;46.980;28.882;2023-03-05T04:46:50;19.13;;;8.13;;
71856;SDS011;63344;46.980;28.882;2023-03-05T04:49:18;17.20;;;8.13;;
71856;SDS011;63344;46.980;28.882;2023-03-05T04:51:45;19.00;;;9.13;;
71856;SDS011;63344;46.980;28.882;2023-03-05T04:56:49;24.35;;;7.43;;
71856;SDS011;63344;46.980;28.882;2023-03-05T04:59:16;19.05;;;7.55;;
71856;SDS011;63344;46.980;28.882;2023-03-05T05:01:43;18.40;;;7.30;;
71856;SDS011;63344;46.980;28.882;2023-03-05T05:04:24;17.35;;;7.63;;
71856;SDS011;63344;46.980;28.882;2023-03-05T05:06:54;17.90;;;8.35;;
71856;SDS011;63344;46.980;28.882;2023-03-05T05:09:24;19.50;;;8.10;;
71856;SDS011;63344;46.980;28.882;2023-03-05T05:11:52;15.93;;;6.03;;
71856;SDS011;63344;46.980;28.882;2023-03-05T05:14:19;20.23;;;7.75;;
71856;SDS011;63344;46.980;28.882;2023-03-05T05:16:46;22.02;;;8.55;;
71856;SDS011;63344;46.980;28.882;2023-03-05T05:19:14;19.02;;;8.23;;
71856;SDS011;63344;46.980;28.882;2023-03-05T05:21:41;18.10;;;7.93;;
71856;SDS011;63344;46.980;28.882;2023-03-05T05:24:08;17.92;;;7.38;;
71856;SDS011;63344;46.980;28.882;2023-03-05T05:26:35;13.82;;;7.28;;
71856;SDS011;63344;46.980;28.882;2023-03-05T05:29:03;12.45;;;5.38;;
71856;SDS011;63344;46.980;28.882;2023-03-05T05:31:30;15.10;;;6.10;;
71856;SDS011;63344;46.980;28.882;2023-03-05T05:33:57;13.98;;;5.93;;
71856;SDS011;63344;46.980;28.882;2023-03-05T05:36:25;13.77;;;6.65;;
71856;SDS011;63344;46.980;28.882;2023-03-05T05:38:52;14.15;;;4.88;;
71856;SDS011;63344;46.980;28.882;2023-03-05T05:41:20;12.98;;;5.63;;
71856;SDS011;63344;46.980;28.882;2023-03-05T05:43:47;9.98;;;4.68;;
71856;SDS011;63344;46.980;28.882;2023-03-05T05:46:16;10.05;;;3.60;;
71856;SDS011;63344;46.980;28.882;2023-03-05T05:48:50;12.23;;;5.18;;
71856;SDS011;63344;46.980;28.882;2023-03-05T05:51:32;12.05;;;4.75;;
71856;SDS011;63344;46.980;28.882;2023-03-05T05:54:28;10.45;;;4.15;;
71856;SDS011;63344;46.980;28.882;2023-03-05T05:57:24;14.55;;;4.65;;
71856;SDS011;63344;46.980;28.882;2023-03-05T05:59:52;12.15;;;4.78;;
71856;SDS011;63344;46.980;28.882;2023-03-05T06:02:19;7.22;;;3.10;;
71856;SDS011;63344;46.980;28.882;2023-03-05T06:04:47;11.27;;;4.72;;
71856;SDS011;63344;46.980;28.882;2023-03-05T06:07:14;11.35;;;3.95;;
71856;SDS011;63344;46.980;28.882;2023-03-05T06:09:41;11.68;;;3.25;;
71856;SDS011;63344;46.980;28.882;2023-03-05T06:12:08;9.55;;;3.97;;
71856;SDS011;63344;46.980;28.882;2023-03-05T06:14:36;5.95;;;3.28;;
71856;SDS011;63344;46.980;28.882;2023-03-05T06:17:03;8.75;;;3.85;;
71856;SDS011;63344;46.980;28.882;2023-03-05T06:19:30;5.10;;;1.98;;
71856;SDS011;63344;46.980;28.882;2023-03-05T06:21:57;5.40;;;1.85;;
71856;SDS011;63344;46.980;28.882;2023-03-05T06:24:25;3.83;;;1.42;;
71856;SDS011;63344;46.980;28.882;2023-03-05T06:26:52;2.35;;;1.05;;
71856;SDS011;63344;46.980;28.882;2023-03-05T06:29:19;4.65;;;2.00;;
71856;SDS011;63344;46.980;28.882;2023-03-05T06:31:46;4.07;;;1.45;;
71856;SDS011;63344;46.980;28.882;2023-03-05T06:34:13;2.60;;;0.98;;
71856;SDS011;63344;46.980;28.882;2023-03-05T06:36:40;3.47;;;1.30;;
71856;SDS011;63344;46.980;28.882;2023-03-05T06:39:09;4.50;;;1.60;;
71856;SDS011;63344;46.980;28.882;2023-03-05T06:41:36;5.03;;;1.90;;
71856;SDS011;63344;46.980;28.882;2023-03-05T06:44:03;8.18;;;3.05;;
71856;SDS011;63344;46.980;28.882;2023-03-05T06:46:32;10.10;;;3.28;;
71856;SDS011;63344;46.980;28.882;2023-03-05T06:49:01;9.63;;;3.17;;
71856;SDS011;63344;46.980;28.882;2023-03-05T06:51:30;5.88;;;3.15;;
71856;SDS011;63344;46.980;28.882;2023-03-05T06:54:00;7.15;;;2.60;;
71856;SDS011;63344;46.980;28.882;2023-03-05T06:56:30;9.27;;;3.40;;
71856;SDS011;63344;46.980;28.882;2023-03-05T06:59:02;11.45;;;3.78;;
71856;SDS011;63344;46.980;28.882;2023-03-05T07:01:31;6.78;;;3.08;;
71856;SDS011;63344;46.980;28.882;2023-03-05T07:03:59;8.55;;;2.90;;
71856;SDS011;63344;46.980;28.882;2023-03-05T07:06:32;7.05;;;3.03;;
71856;SDS011;63344;46.980;28.882;2023-03-05T07:09:03;6.03;;;1.65;;
71856;SDS011;63344;46.980;28.882;2023-03-05T07:11:32;6.95;;;2.70;;
71856;SDS011;63344;46.980;28.882;2023-03-05T07:14:00;6.00;;;2.60;;
71856;SDS011;63344;46.980;28.882;2023-03-05T07:16:30;3.72;;;1.88;;
71856;SDS011;63344;46.980;28.882;2023-03-05T07:21:31;4.97;;;1.95;;
71856;SDS011;63344;46.980;28.882;2023-03-05T07:24:06;4.07;;;1.95;;
71856;SDS011;63344;46.980;28.882;2023-03-05T07:26:33;4.75;;;1.27;;
71856;SDS011;63344;46.980;28.882;2023-03-05T07:29:02;3.38;;;1.00;;
71856;SDS011;63344;46.980;28.882;2023-03-05T07:31:31;3.80;;;0.75;;
71856;SDS011;63344;46.980;28.882;2023-03-05T07:33:59;2.70;;;1.00;;
71856;SDS011;63344;46.980;28.882;2023-03-05T07:36:50;1.92;;;0.52;;
71856;SDS011;63344;46.980;28.882;2023-03-05T07:39:23;1.83;;;0.63;;
71856;SDS011;63344;46.980;28.882;2023-03-05T07:41:51;3.03;;;0.50;;
71856;SDS011;63344;46.980;28.882;2023-03-05T07:44:20;3.95;;;0.93;;
71856;SDS011;63344;46.980;28.882;2023-03-05T07:46:47;1.65;;;0.77;;
71856;SDS011;63344;46.980;28.882;2023-03-05T07:49:15;1.80;;;1.02;;
71856;SDS011;63344;46.980;28.882;2023-03-05T07:51:42;2.40;;;0.80;;
71856;SDS011;63344;46.980;28.882;2023-03-05T07:54:10;1.13;;;0.70;;
71856;SDS011;63344;46.980;28.882;2023-03-05T07:56:37;2.53;;;0.90;;
71856;SDS011;63344;46.980;28.882;2023-03-05T07:59:05;4.15;;;1.00;;
71856;SDS011;63344;46.980;28.882;2023-03-05T08:01:36;4.07;;;1.17;;
71856;SDS011;63344;46.980;28.882;2023-03-05T08:04:04;4.15;;;1.20;;
71856;SDS011;63344;46.980;28.882;2023-03-05T08:06:34;2.42;;;1.00;;
71856;SDS011;63344;46.980;28.882;2023-03-05T08:09:10;3.85;;;1.60;;
71856;SDS011;63344;46.980;28.882;2023-03-05T08:11:38;4.45;;;1.48;;
71856;SDS011;63344;46.980;28.882;2023-03-05T08:14:07;2.88;;;1.33;;
71856;SDS011;63344;46.980;28.882;2023-03-05T08:16:37;6.20;;;1.90;;
71856;SDS011;63344;46.980;28.882;2023-03-05T08:19:05;5.32;;;1.52;;
71856;SDS011;63344;46.980;28.882;2023-03-05T08:21:34;5.70;;;2.35;;
71856;SDS011;63344;46.980;28.882;2023-03-05T08:24:03;6.47;;;2.30;;
71856;SDS011;63344;46.980;28.882;2023-03-05T08:26:34;5.65;;;2.10;;
71856;SDS011;63344;46.980;28.882;2023-03-05T08:29:08;6.63;;;2.80;;
71856;SDS011;63344;46.980;28.882;2023-03-05T08:31:38;6.00;;;2.35;;
71856;SDS011;63344;46.980;28.882;2023-03-05T08:34:06;6.35;;;2.50;;
71856;SDS011;63344;46.980;28.882;2023-03-05T08:36:33;4.57;;;2.58;;
71856;SDS011;63344;46.980;28.882;2023-03-05T08:39:01;5.53;;;3.45;;
71856;SDS011;63344;46.980;28.882;2023-03-05T08:41:29;6.05;;;2.53;;
71856;SDS011;63344;46.980;28.882;2023-03-05T08:43:56;6.15;;;2.40;;
71856;SDS011;63344;46.980;28.882;2023-03-05T08:46:23;6.95;;;3.42;;
71856;SDS011;63344;46.980;28.882;2023-03-05T08:48:52;7.93;;;2.10;;
71856;SDS011;63344;46.980;28.882;2023-03-05T08:51:20;4.32;;;2.03;;
71856;SDS011;63344;46.980;28.882;2023-03-05T08:53:52;3.97;;;1.80;;
71856;SDS011;63344;46.980;28.882;2023-03-05T08:56:20;5.43;;;2.22;;
71856;SDS011;63344;46.980;28.882;2023-03-05T08:58:47;2.47;;;1.17;;
71856;SDS011;63344;46.980;28.882;2023-03-05T09:01:15;7.18;;;2.10;;
71856;SDS011;63344;46.980;28.882;2023-03-05T09:03:42;3.88;;;1.38;;
71856;SDS011;63344;46.980;28.882;2023-03-05T09:06:10;4.35;;;1.27;;
71856;SDS011;63344;46.980;28.882;2023-03-05T09:08:38;3.60;;;1.05;;
71856;SDS011;63344;46.980;28.882;2023-03-05T09:11:06;3.47;;;0.90;;
71856;SDS011;63344;46.980;28.882;2023-03-05T09:13:35;2.78;;;0.88;;
71856;SDS011;63344;46.980;28.882;2023-03-05T09:16:05;2.78;;;0.90;;
71856;SDS011;63344;46.980;28.882;2023-03-05T09:18:39;7.13;;;1.08;;
71856;SDS011;63344;46.980;28.882;2023-03-05T09:21:09;2.65;;;0.90;;
71856;SDS011;63344;46.980;28.882;2023-03-05T09:23:38;2.20;;;1.10;;
71856;SDS011;63344;46.980;28.882;2023-03-05T09:26:07;5.25;;;1.80;;
71856;SDS011;63344;46.980;28.882;2023-03-05T09:28:38;6.97;;;1.50;;
71856;SDS011;63344;46.980;28.882;2023-03-05T09:31:07;5.90;;;1.60;;
71856;SDS011;63344;46.980;28.882;2023-03-05T09:33:36;5.35;;;1.83;;
71856;SDS011;63344;46.980;28.882;2023-03-05T09:36:14;4.68;;;1.08;;
71856;SDS011;63344;46.980;28.882;2023-03-05T09:38:49;1.80;;;1.15;;
71856;SDS011;63344;46.980;28.882;2023-03-05T09:41:35;5.75;;;1.10;;
71856;SDS011;63344;46.980;28.882;2023-03-05T09:44:24;5.68;;;1.98;;
71856;SDS011;63344;46.980;28.882;2023-03-05T09:47:07;5.30;;;2.22;;
71856;SDS011;63344;46.980;28.882;2023-03-05T09:50:00;2.67;;;1.30;;
71856;SDS011;63344;46.980;28.882;2023-03-05T09:52:46;4.25;;;1.27;;
71856;SDS011;63344;46.980;28.882;2023-03-05T09:55:30;7.50;;;1.85;;
71856;SDS011;63344;46.980;28.882;2023-03-05T09:58:05;4.00;;;1.35;;
71856;SDS011;63344;46.980;28.882;2023-03-05T10:00:40;4.70;;;1.45;;
71856;SDS011;63344;46.980;28.882;2023-03-05T10:03:12;3.63;;;1.50;;
71856;SDS011;63344;46.980;28.882;2023-03-05T10:05:46;4.15;;;1.30;;
71856;SDS011;63344;46.980;28.882;2023-03-05T10:11:49;3.00;;;1.33;;
71856;SDS011;63344;46.980;28.882;2023-03-05T10:14:23;5.90;;;1.40;;
71856;SDS011;63344;46.980;28.882;2023-03-05T10:19:56;3.05;;;1.30;;
71856;SDS011;63344;46.980;28.882;2023-03-05T10:23:00;3.00;;;1.70;;
71856;SDS011;63344;46.980;28.882;2023-03-05T10:25:47;5.97;;;1.40;;
71856;SDS011;63344;46.980;28.882;2023-03-05T10:28:47;4.88;;;1.58;;
71856;SDS011;63344;46.980;28.882;2023-03-05T10:42:12;3.17;;;1.17;;
71856;SDS011;63344;46.980;28.882;2023-03-05T10:45:00;3.42;;;1.42;;
71856;SDS011;63344;46.980;28.882;2023-03-05T10:47:58;3.08;;;2.28;;
71856;SDS011;63344;46.980;28.882;2023-03-05T10:50:35;3.85;;;1.45;;
71856;SDS011;63344;46.980;28.882;2023-03-05T10:55:35;5.43;;;2.35;;
71856;SDS011;63344;46.980;28.882;2023-03-05T10:58:09;2.13;;;0.93;;
71856;SDS011;63344;46.980;28.882;2023-03-05T11:00:39;5.93;;;1.95;;
71856;SDS011;63344;46.980;28.882;2023-03-05T11:03:25;7.13;;;2.15;;
71856;SDS011;63344;46.980;28.882;2023-03-05T11:09:22;1.98;;;0.88;;
71856;SDS011;63344;46.980;28.882;2023-03-05T11:17:38;4.78;;;1.20;;
71856;SDS011;63344;46.980;28.882;2023-03-05T11:28:21;1.25;;;0.63;;
71856;SDS011;63344;46.980;28.882;2023-03-05T11:31:01;1.35;;;0.77;;
71856;SDS011;63344;46.980;28.882;2023-03-05T11:33:53;3.95;;;1.30;;
71856;SDS011;63344;46.980;28.882;2023-03-05T11:36:33;2.08;;;0.95;;
71856;SDS011;63344;46.980;28.882;2023-03-05T11:44:49;2.70;;;0.73;;
71856;SDS011;63344;46.980;28.882;2023-03-05T11:47:25;4.40;;;2.30;;
71856;SDS011;63344;46.980;28.882;2023-03-05T11:52:46;7.75;;;1.73;;
71856;SDS011;63344;46.980;28.882;2023-03-05T11:55:20;4.07;;;1.33;;
71856;SDS011;63344;46.980;28.882;2023-03-05T12:00:52;2.65;;;1.13;;
71856;SDS011;63344;46.980;28.882;2023-03-05T12:03:25;4.15;;;1.42;;
71856;SDS011;63344;46.980;28.882;2023-03-05T12:06:05;5.10;;;1.65;;
71856;SDS011;63344;46.980;28.882;2023-03-05T12:08:36;2.85;;;0.75;;
71856;SDS011;63344;46.980;28.882;2023-03-05T12:11:11;4.22;;;2.05;;
71856;SDS011;63344;46.980;28.882;2023-03-05T12:14:27;4.40;;;1.73;;
71856;SDS011;63344;46.980;28.882;2023-03-05T12:20:07;6.40;;;2.78;;
71856;SDS011;63344;46.980;28.882;2023-03-05T12:22:43;5.13;;;1.60;;
71856;SDS011;63344;46.980;28.882;2023-03-05T12:27:53;4.05;;;1.55;;
71856;SDS011;63344;46.980;28.882;2023-03-05T12:33:02;3.60;;;1.40;;
71856;SDS011;63344;46.980;28.882;2023-03-05T12:35:36;3.95;;;1.55;;
71856;SDS011;63344;46.980;28.882;2023-03-05T12:38:14;6.30;;;1.75;;
71856;SDS011;63344;46.980;28.882;2023-03-05T12:41:09;4.13;;;1.35;;
71856;SDS011;63344;46.980;28.882;2023-03-05T12:47:35;2.63;;;1.60;;
71856;SDS011;63344;46.980;28.882;2023-03-05T12:58:12;3.67;;;1.52;;
71856;SDS011;63344;46.980;28.882;2023-03-05T13:01:03;4.22;;;2.08;;
71856;SDS011;63344;46.980;28.882;2023-03-05T13:03:46;4.45;;;1.67;;
71856;SDS011;63344;46.980;28.882;2023-03-05T13:06:29;5.00;;;2.00;;
71856;SDS011;63344;46.980;28.882;2023-03-05T13:11:45;2.33;;;1.70;;
71856;SDS011;63344;46.980;28.882;2023-03-05T13:14:32;3.70;;;1.50;;
71856;SDS011;63344;46.980;28.882;2023-03-05T13:17:31;4.05;;;1.30;;
71856;SDS011;63344;46.980;28.882;2023-03-05T13:23:01;5.72;;;1.60;;
71856;SDS011;63344;46.980;28.882;2023-03-05T13:25:41;3.15;;;1.75;;
71856;SDS011;63344;46.980;28.882;2023-03-05T13:28:14;4.57;;;1.83;;
71856;SDS011;63344;46.980;28.882;2023-03-05T13:30:44;6.85;;;1.88;;
71856;SDS011;63344;46.980;28.882;2023-03-05T13:33:19;7.57;;;2.17;;
71856;SDS011;63344;46.980;28.882;2023-03-05T13:35:51;4.20;;;1.77;;
71856;SDS011;63344;46.980;28.882;2023-03-05T13:38:25;5.00;;;1.98;;
71856;SDS011;63344;46.980;28.882;2023-03-05T13:41:15;3.97;;;2.00;;
71856;SDS011;63344;46.980;28.882;2023-03-05T13:43:59;8.48;;;2.55;;
71856;SDS011;63344;46.980;28.882;2023-03-05T13:52:02;5.55;;;2.03;;
71856;SDS011;63344;46.980;28.882;2023-03-05T13:54:30;4.30;;;1.45;;
71856;SDS011;63344;46.980;28.882;2023-03-05T13:57:00;6.65;;;2.70;;
71856;SDS011;63344;46.980;28.882;2023-03-05T13:59:35;6.57;;;2.63;;
71856;SDS011;63344;46.980;28.882;2023-03-05T14:02:15;6.40;;;2.45;;
71856;SDS011;63344;46.980;28.882;2023-03-05T14:04:44;8.93;;;2.40;;
71856;SDS011;63344;46.980;28.882;2023-03-05T14:09:54;5.10;;;2.08;;
71856;SDS011;63344;46.980;28.882;2023-03-05T14:12:30;7.25;;;2.42;;
71856;SDS011;63344;46.980;28.882;2023-03-05T14:15:22;6.00;;;2.28;;
71856;SDS011;63344;46.980;28.882;2023-03-05T14:20:56;5.53;;;2.75;;
71856;SDS011;63344;46.980;28.882;2023-03-05T14:31:35;7.50;;;2.67;;
71856;SDS011;63344;46.980;28.882;2023-03-05T14:34:16;6.47;;;2.03;;
71856;SDS011;63344;46.980;28.882;2023-03-05T14:37:14;4.65;;;2.28;;
71856;SDS011;63344;46.980;28.882;2023-03-05T14:39:53;5.43;;;2.22;;
71856;SDS011;63344;46.980;28.882;2023-03-05T14:42:29;7.13;;;2.42;;
71856;SDS011;63344;46.980;28.882;2023-03-05T14:45:00;6.10;;;2.53;;
71856;SDS011;63344;46.980;28.882;2023-03-05T14:47:36;5.38;;;2.78;;
71856;SDS011;63344;46.980;28.882;2023-03-05T14:50:04;4.32;;;2.20;;
71856;SDS011;63344;46.980;28.882;2023-03-05T14:52:33;3.67;;;1.95;;
71856;SDS011;63344;46.980;28.882;2023-03-05T14:55:01;4.95;;;1.73;;
71856;SDS011;63344;46.980;28.882;2023-03-05T14:57:29;6.85;;;1.67;;
71856;SDS011;63344;46.980;28.882;2023-03-05T14:59:59;6.93;;;2.55;;
71856;SDS011;63344;46.980;28.882;2023-03-05T15:02:28;6.35;;;3.03;;
71856;SDS011;63344;46.980;28.882;2023-03-05T15:04:59;7.88;;;2.45;;
71856;SDS011;63344;46.980;28.882;2023-03-05T15:07:30;5.50;;;2.42;;
71856;SDS011;63344;46.980;28.882;2023-03-05T15:09:57;10.98;;;2.90;;
71856;SDS011;63344;46.980;28.882;2023-03-05T15:12:28;6.93;;;2.30;;
71856;SDS011;63344;46.980;28.882;2023-03-05T15:14:55;4.82;;;2.05;;
71856;SDS011;63344;46.980;28.882;2023-03-05T15:17:33;7.00;;;3.00;;
71856;SDS011;63344;46.980;28.882;2023-03-05T15:20:03;5.82;;;2.70;;
71856;SDS011;63344;46.980;28.882;2023-03-05T15:22:35;6.85;;;2.67;;
71856;SDS011;63344;46.980;28.882;2023-03-05T15:25:03;6.35;;;2.78;;
71856;SDS011;63344;46.980;28.882;2023-03-05T15:27:31;10.18;;;3.05;;
71856;SDS011;63344;46.980;28.882;2023-03-05T15:29:58;9.57;;;3.45;;
71856;SDS011;63344;46.980;28.882;2023-03-05T15:32:26;6.35;;;2.75;;
71856;SDS011;63344;46.980;28.882;2023-03-05T15:34:54;8.10;;;2.70;;
71856;SDS011;63344;46.980;28.882;2023-03-05T15:37:22;7.07;;;2.65;;
71856;SDS011;63344;46.980;28.882;2023-03-05T15:39:49;9.95;;;3.28;;
71856;SDS011;63344;46.980;28.882;2023-03-05T15:42:37;5.57;;;2.97;;
71856;SDS011;63344;46.980;28.882;2023-03-05T15:45:04;8.65;;;3.67;;
71856;SDS011;63344;46.980;28.882;2023-03-05T15:47:32;9.18;;;3.53;;
71856;SDS011;63344;46.980;28.882;2023-03-05T15:49:59;10.38;;;3.83;;
71856;SDS011;63344;46.980;28.882;2023-03-05T15:52:27;13.43;;;5.03;;
71856;SDS011;63344;46.980;28.882;2023-03-05T15:54:54;12.10;;;4.40;;
71856;SDS011;63344;46.980;28.882;2023-03-05T15:57:21;9.93;;;2.85;;
71856;SDS011;63344;46.980;28.882;2023-03-05T15:59:48;5.78;;;2.20;;
71856;SDS011;63344;46.980;28.882;2023-03-05T16:02:16;5.07;;;2.45;;
71856;SDS011;63344;46.980;28.882;2023-03-05T16:04:45;7.50;;;3.80;;
71856;SDS011;63344;46.980;28.882;2023-03-05T16:07:13;8.65;;;3.22;;
71856;SDS011;63344;46.980;28.882;2023-03-05T16:09:41;8.20;;;3.38;;
71856;SDS011;63344;46.980;28.882;2023-03-05T16:12:13;16.95;;;7.30;;
71856;SDS011;63344;46.980;28.882;2023-03-05T16:14:48;7.72;;;3.63;;
71856;SDS011;63344;46.980;28.882;2023-03-05T16:17:20;11.25;;;4.22;;
71856;SDS011;63344;46.980;28.882;2023-03-05T16:19:51;9.88;;;3.70;;
71856;SDS011;63344;46.980;28.882;2023-03-05T16:22:22;8.13;;;4.00;;
71856;SDS011;63344;46.980;28.882;2023-03-05T16:24:51;14.32;;;5.07;;
71856;SDS011;63344;46.980;28.882;2023-03-05T16:27:21;9.65;;;4.32;;
71856;SDS011;63344;46.980;28.882;2023-03-05T16:29:54;12.13;;;5.30;;
71856;SDS011;63344;46.980;28.882;2023-03-05T16:32:24;11.18;;;4.60;;
71856;SDS011;63344;46.980;28.882;2023-03-05T16:34:56;10.15;;;4.07;;
71856;SDS011;63344;46.980;28.882;2023-03-05T16:37:24;18.77;;;8.20;;
71856;SDS011;63344;46.980;28.882;2023-03-05T16:39:58;15.02;;;5.25;;
71856;SDS011;63344;46.980;28.882;2023-03-05T16:42:26;13.05;;;5.80;;
71856;SDS011;63344;46.980;28.882;2023-03-05T16:44:54;15.25;;;5.90;;